sensor_id;sensor_type;location;lat;lon;timestamp;P1;durP1;ratioP1;P2;durP2;ratioP2
55148;SDS011;49539;48.160;11.530;2024-02-16T00:00:43;6.13;;;3.17;;
55148;SDS011;49539;48.160;11.530;2024-02-16T00:03:09;6.80;;;4.15;;
55148;SDS011;49539;48.160;11.530;2024-02-16T00:05:35;9.40;;;4.47;;
55148;SDS011;49539;48.160;11.530;2024-02-16T00:08:01;5.93;;;3.80;;
55148;SDS011;49539;48.160;11.530;2024-02-16T00:10:28;7.72;;;4.35;;
55148;SDS011;49539;48.160;11.530;2024-02-16T00:12:53;8.30;;;4.25;;
55148;SDS011;49539;48.160;11.530;2024-02-16T00:15:18;7.00;;;3.92;;
55148;SDS011;49539;48.160;11.530;2024-02-16T00:17:44;6.47;;;4.03;;
55148;SDS011;49539;48.160;11.530;2024-02-16T00:20:09;7.78;;;4.35;;
55148;SDS011;49539;48.160;11.530;2024-02-16T00:22:37;5.18;;;3.08;;
55148;SDS011;49539;48.160;11.530;2024-02-16T00:25:03;7.95;;;3.70;;
55148;SDS011;49539;48.160;11.530;2024-02-16T00:27:28;7.20;;;4.55;;
55148;SDS011;49539;48.160;11.530;2024-02-16T00:29:54;9.57;;;4.80;;
55148;SDS011;49539;48.160;11.530;2024-02-16T00:32:19;6.93;;;3.75;;
55148;SDS011;49539;48.160;11.530;2024-02-16T00:34:44;9.02;;;4.10;;
55148;SDS011;49539;48.160;11.530;2024-02-16T00:37:10;7.05;;;4.13;;
55148;SDS011;49539;48.160;11.530;2024-02-16T00:39:37;6.95;;;3.60;;
55148;SDS011;49539;48.160;11.530;2024-02-16T00:42:05;7.65;;;3.50;;
55148;SDS011;49539;48.160;11.530;2024-02-16T00:44:31;6.78;;;4.03;;
55148;SDS011;49539;48.160;11.530;2024-02-16T00:46:56;7.05;;;3.80;;
55148;SDS011;49539;48.160;11.530;2024-02-16T00:49:21;7.20;;;3.70;;
55148;SDS011;49539;48.160;11.530;2024-02-16T00:51:47;6.82;;;3.28;;
55148;SDS011;49539;48.160;11.530;2024-02-16T00:54:12;8.95;;;4.18;;
55148;SDS011;49539;48.160;11.530;2024-02-16T00:56:38;5.78;;;3.75;;
55148;SDS011;49539;48.160;11.530;2024-02-16T00:59:04;7.07;;;3.85;;
55148;SDS011;49539;48.160;11.530;2024-02-16T01:01:29;6.10;;;3.67;;
55148;SDS011;49539;48.160;11.530;2024-02-16T01:03:54;13.75;;;4.35;;
55148;SDS011;49539;48.160;11.530;2024-02-16T01:06:20;6.88;;;3.55;;
55148;SDS011;49539;48.160;11.530;2024-02-16T01:08:45;7.65;;;4.45;;
55148;SDS011;49539;48.160;11.530;2024-02-16T01:11:11;7.57;;;4.30;;
55148;SDS011;49539;48.160;11.530;2024-02-16T01:13:37;6.50;;;4.25;;
55148;SDS011;49539;48.160;11.530;2024-02-16T01:16:03;7.60;;;4.43;;
55148;SDS011;49539;48.160;11.530;2024-02-16T01:18:28;9.88;;;4.70;;
55148;SDS011;49539;48.160;11.530;2024-02-16T01:20:54;7.15;;;4.47;;
55148;SDS011;49539;48.160;11.530;2024-02-16T01:23:20;7.38;;;4.13;;
55148;SDS011;49539;48.160;11.530;2024-02-16T01:25:45;6.43;;;3.75;;
55148;SDS011;49539;48.160;11.530;2024-02-16T01:28:11;8.40;;;4.47;;
55148;SDS011;49539;48.160;11.530;2024-02-16T01:30:37;7.82;;;3.50;;
55148;SDS011;49539;48.160;11.530;2024-02-16T01:33:03;7.78;;;3.95;;
55148;SDS011;49539;48.160;11.530;2024-02-16T01:35:28;7.97;;;4.05;;
55148;SDS011;49539;48.160;11.530;2024-02-16T01:37:53;8.25;;;3.67;;
55148;SDS011;49539;48.160;11.530;2024-02-16T01:40:18;6.72;;;3.83;;
55148;SDS011;49539;48.160;11.530;2024-02-16T01:42:44;8.27;;;4.70;;
55148;SDS011;49539;48.160;11.530;2024-02-16T01:45:10;8.77;;;4.50;;
55148;SDS011;49539;48.160;11.530;2024-02-16T01:47:36;8.57;;;4.53;;
55148;SDS011;49539;48.160;11.530;2024-02-16T01:50:02;7.15;;;3.92;;
55148;SDS011;49539;48.160;11.530;2024-02-16T01:52:27;7.72;;;3.22;;
55148;SDS011;49539;48.160;11.530;2024-02-16T01:54:53;8.32;;;4.35;;
55148;SDS011;49539;48.160;11.530;2024-02-16T01:57:18;10.10;;;4.13;;
55148;SDS011;49539;48.160;11.530;2024-02-16T01:59:44;6.18;;;4.07;;
55148;SDS011;49539;48.160;11.530;2024-02-16T02:02:10;11.13;;;4.10;;
55148;SDS011;49539;48.160;11.530;2024-02-16T02:04:36;9.77;;;4.32;;
55148;SDS011;49539;48.160;11.530;2024-02-16T02:07:10;8.45;;;4.38;;
55148;SDS011;49539;48.160;11.530;2024-02-16T02:12:01;9.07;;;4.97;;
55148;SDS011;49539;48.160;11.530;2024-02-16T02:14:26;8.32;;;4.35;;
55148;SDS011;49539;48.160;11.530;2024-02-16T02:16:51;6.28;;;3.88;;
55148;SDS011;49539;48.160;11.530;2024-02-16T02:19:17;6.72;;;3.95;;
55148;SDS011;49539;48.160;11.530;2024-02-16T02:21:42;7.32;;;3.95;;
55148;SDS011;49539;48.160;11.530;2024-02-16T02:24:07;8.57;;;4.43;;
55148;SDS011;49539;48.160;11.530;2024-02-16T02:26:33;7.20;;;3.60;;
55148;SDS011;49539;48.160;11.530;2024-02-16T02:28:58;14.65;;;3.88;;
55148;SDS011;49539;48.160;11.530;2024-02-16T02:31:23;6.90;;;3.72;;
55148;SDS011;49539;48.160;11.530;2024-02-16T02:33:48;10.07;;;3.97;;
55148;SDS011;49539;48.160;11.530;2024-02-16T02:36:14;7.10;;;3.53;;
55148;SDS011;49539;48.160;11.530;2024-02-16T02:38:39;8.52;;;3.85;;
55148;SDS011;49539;48.160;11.530;2024-02-16T02:41:05;7.20;;;3.83;;
55148;SDS011;49539;48.160;11.530;2024-02-16T02:43:30;6.53;;;4.88;;
55148;SDS011;49539;48.160;11.530;2024-02-16T02:45:55;7.32;;;3.70;;
55148;SDS011;49539;48.160;11.530;2024-02-16T02:48:21;5.85;;;3.42;;
55148;SDS011;49539;48.160;11.530;2024-02-16T02:50:46;8.15;;;4.10;;
55148;SDS011;49539;48.160;11.530;2024-02-16T02:53:11;6.63;;;3.80;;
55148;SDS011;49539;48.160;11.530;2024-02-16T02:55:37;7.47;;;3.80;;
55148;SDS011;49539;48.160;11.530;2024-02-16T02:58:02;7.57;;;3.80;;
55148;SDS011;49539;48.160;11.530;2024-02-16T03:00:28;5.38;;;3.55;;
55148;SDS011;49539;48.160;11.530;2024-02-16T03:02:53;7.32;;;3.47;;
55148;SDS011;49539;48.160;11.530;2024-02-16T03:05:19;7.00;;;4.18;;
55148;SDS011;49539;48.160;11.530;2024-02-16T03:07:45;6.53;;;3.63;;
55148;SDS011;49539;48.160;11.530;2024-02-16T03:10:10;8.15;;;4.38;;
55148;SDS011;49539;48.160;11.530;2024-02-16T03:12:35;8.30;;;4.15;;
55148;SDS011;49539;48.160;11.530;2024-02-16T03:15:01;6.38;;;3.75;;
55148;SDS011;49539;48.160;11.530;2024-02-16T03:17:26;6.05;;;3.72;;
55148;SDS011;49539;48.160;11.530;2024-02-16T03:19:51;10.00;;;4.50;;
55148;SDS011;49539;48.160;11.530;2024-02-16T03:22:17;7.18;;;4.10;;
55148;SDS011;49539;48.160;11.530;2024-02-16T03:24:43;7.05;;;3.80;;
55148;SDS011;49539;48.160;11.530;2024-02-16T03:27:10;7.70;;;4.65;;
55148;SDS011;49539;48.160;11.530;2024-02-16T03:29:35;7.07;;;4.47;;
55148;SDS011;49539;48.160;11.530;2024-02-16T03:32:01;6.47;;;4.43;;
55148;SDS011;49539;48.160;11.530;2024-02-16T03:34:26;6.78;;;3.72;;
55148;SDS011;49539;48.160;11.530;2024-02-16T03:36:51;7.25;;;4.18;;
55148;SDS011;49539;48.160;11.530;2024-02-16T03:39:17;7.07;;;3.92;;
55148;SDS011;49539;48.160;11.530;2024-02-16T03:41:45;6.93;;;3.60;;
55148;SDS011;49539;48.160;11.530;2024-02-16T03:44:13;10.15;;;4.88;;
55148;SDS011;49539;48.160;11.530;2024-02-16T03:46:39;7.38;;;3.75;;
55148;SDS011;49539;48.160;11.530;2024-02-16T03:49:04;6.68;;;4.07;;
55148;SDS011;49539;48.160;11.530;2024-02-16T03:51:29;7.03;;;3.75;;
55148;SDS011;49539;48.160;11.530;2024-02-16T03:53:55;6.93;;;3.83;;
55148;SDS011;49539;48.160;11.530;2024-02-16T03:56:20;7.93;;;3.92;;
55148;SDS011;49539;48.160;11.530;2024-02-16T03:58:46;7.53;;;4.00;;
55148;SDS011;49539;48.160;11.530;2024-02-16T04:01:11;6.40;;;3.60;;
55148;SDS011;49539;48.160;11.530;2024-02-16T04:03:36;6.90;;;3.22;;
55148;SDS011;49539;48.160;11.530;2024-02-16T04:06:02;5.82;;;3.47;;
55148;SDS011;49539;48.160;11.530;2024-02-16T04:08:29;5.32;;;3.47;;
55148;SDS011;49539;48.160;11.530;2024-02-16T04:10:54;6.43;;;4.30;;
55148;SDS011;49539;48.160;11.530;2024-02-16T04:13:20;6.07;;;3.78;;
55148;SDS011;49539;48.160;11.530;2024-02-16T04:15:45;7.85;;;4.07;;
55148;SDS011;49539;48.160;11.530;2024-02-16T04:18:10;8.02;;;3.83;;
55148;SDS011;49539;48.160;11.530;2024-02-16T04:20:36;6.93;;;3.78;;
55148;SDS011;49539;48.160;11.530;2024-02-16T04:23:03;8.30;;;3.83;;
55148;SDS011;49539;48.160;11.530;2024-02-16T04:25:28;9.65;;;4.07;;
55148;SDS011;49539;48.160;11.530;2024-02-16T04:27:53;9.07;;;3.72;;
55148;SDS011;49539;48.160;11.530;2024-02-16T04:30:19;7.65;;;3.75;;
55148;SDS011;49539;48.160;11.530;2024-02-16T04:32:44;7.30;;;3.50;;
55148;SDS011;49539;48.160;11.530;2024-02-16T04:35:10;7.15;;;3.65;;
55148;SDS011;49539;48.160;11.530;2024-02-16T04:37:37;7.78;;;3.55;;
55148;SDS011;49539;48.160;11.530;2024-02-16T04:40:03;7.65;;;3.70;;
55148;SDS011;49539;48.160;11.530;2024-02-16T04:42:30;5.55;;;3.38;;
55148;SDS011;49539;48.160;11.530;2024-02-16T04:44:56;7.78;;;3.58;;
55148;SDS011;49539;48.160;11.530;2024-02-16T04:47:21;7.28;;;3.63;;
55148;SDS011;49539;48.160;11.530;2024-02-16T04:49:46;4.93;;;3.10;;
55148;SDS011;49539;48.160;11.530;2024-02-16T04:52:12;9.15;;;3.75;;
55148;SDS011;49539;48.160;11.530;2024-02-16T04:54:37;5.40;;;3.13;;
55148;SDS011;49539;48.160;11.530;2024-02-16T04:57:05;6.55;;;2.90;;
55148;SDS011;49539;48.160;11.530;2024-02-16T04:59:30;5.55;;;3.25;;
55148;SDS011;49539;48.160;11.530;2024-02-16T05:01:56;6.00;;;3.50;;
55148;SDS011;49539;48.160;11.530;2024-02-16T05:04:22;7.75;;;2.85;;
55148;SDS011;49539;48.160;11.530;2024-02-16T05:06:47;4.20;;;2.55;;
55148;SDS011;49539;48.160;11.530;2024-02-16T05:09:13;4.15;;;2.75;;
55148;SDS011;49539;48.160;11.530;2024-02-16T05:11:42;11.48;;;3.88;;
55148;SDS011;49539;48.160;11.530;2024-02-16T05:14:07;5.28;;;2.70;;
55148;SDS011;49539;48.160;11.530;2024-02-16T05:16:32;6.57;;;3.15;;
55148;SDS011;49539;48.160;11.530;2024-02-16T05:18:58;4.85;;;3.05;;
55148;SDS011;49539;48.160;11.530;2024-02-16T05:21:23;3.90;;;2.28;;
55148;SDS011;49539;48.160;11.530;2024-02-16T05:23:48;5.10;;;2.85;;
55148;SDS011;49539;48.160;11.530;2024-02-16T05:26:14;4.93;;;2.42;;
55148;SDS011;49539;48.160;11.530;2024-02-16T05:28:39;6.45;;;3.35;;
55148;SDS011;49539;48.160;11.530;2024-02-16T05:31:12;7.22;;;2.85;;
55148;SDS011;49539;48.160;11.530;2024-02-16T05:33:40;6.38;;;2.80;;
55148;SDS011;49539;48.160;11.530;2024-02-16T05:36:05;9.02;;;3.30;;
55148;SDS011;49539;48.160;11.530;2024-02-16T05:38:32;8.07;;;3.15;;
55148;SDS011;49539;48.160;11.530;2024-02-16T05:41:00;4.38;;;2.45;;
55148;SDS011;49539;48.160;11.530;2024-02-16T05:43:25;6.10;;;2.90;;
55148;SDS011;49539;48.160;11.530;2024-02-16T05:45:50;5.97;;;2.63;;
55148;SDS011;49539;48.160;11.530;2024-02-16T05:48:15;5.93;;;2.88;;
55148;SDS011;49539;48.160;11.530;2024-02-16T05:50:41;6.20;;;2.85;;
55148;SDS011;49539;48.160;11.530;2024-02-16T05:53:06;4.07;;;2.63;;
55148;SDS011;49539;48.160;11.530;2024-02-16T05:55:32;7.97;;;3.10;;
55148;SDS011;49539;48.160;11.530;2024-02-16T05:57:57;8.93;;;3.47;;
55148;SDS011;49539;48.160;11.530;2024-02-16T06:00:23;4.63;;;2.28;;
55148;SDS011;49539;48.160;11.530;2024-02-16T06:02:48;6.32;;;3.10;;
55148;SDS011;49539;48.160;11.530;2024-02-16T06:05:14;4.78;;;2.22;;
55148;SDS011;49539;48.160;11.530;2024-02-16T06:07:39;5.53;;;2.70;;
55148;SDS011;49539;48.160;11.530;2024-02-16T06:10:05;8.05;;;2.75;;
55148;SDS011;49539;48.160;11.530;2024-02-16T06:12:38;5.78;;;2.95;;
55148;SDS011;49539;48.160;11.530;2024-02-16T06:15:04;8.40;;;2.50;;
55148;SDS011;49539;48.160;11.530;2024-02-16T06:17:30;9.02;;;3.38;;
55148;SDS011;49539;48.160;11.530;2024-02-16T06:19:55;9.50;;;3.25;;
55148;SDS011;49539;48.160;11.530;2024-02-16T06:22:20;4.78;;;2.22;;
55148;SDS011;49539;48.160;11.530;2024-02-16T06:24:46;5.10;;;2.90;;
55148;SDS011;49539;48.160;11.530;2024-02-16T06:27:11;7.35;;;2.90;;
55148;SDS011;49539;48.160;11.530;2024-02-16T06:29:36;4.45;;;2.42;;
55148;SDS011;49539;48.160;11.530;2024-02-16T06:32:02;5.15;;;2.20;;
55148;SDS011;49539;48.160;11.530;2024-02-16T06:34:27;4.35;;;2.58;;
55148;SDS011;49539;48.160;11.530;2024-02-16T06:36:53;4.10;;;2.20;;
55148;SDS011;49539;48.160;11.530;2024-02-16T06:39:18;5.03;;;2.85;;
55148;SDS011;49539;48.160;11.530;2024-02-16T06:41:44;4.10;;;2.10;;
55148;SDS011;49539;48.160;11.530;2024-02-16T06:44:09;4.22;;;2.20;;
55148;SDS011;49539;48.160;11.530;2024-02-16T06:46:34;3.72;;;2.10;;
55148;SDS011;49539;48.160;11.530;2024-02-16T06:49:00;13.15;;;2.80;;
55148;SDS011;49539;48.160;11.530;2024-02-16T06:51:25;5.63;;;2.08;;
55148;SDS011;49539;48.160;11.530;2024-02-16T06:53:52;5.55;;;2.03;;
55148;SDS011;49539;48.160;11.530;2024-02-16T06:56:18;3.53;;;2.20;;
55148;SDS011;49539;48.160;11.530;2024-02-16T06:58:43;5.50;;;2.15;;
55148;SDS011;49539;48.160;11.530;2024-02-16T07:01:09;11.00;;;2.20;;
55148;SDS011;49539;48.160;11.530;2024-02-16T07:03:34;4.65;;;2.22;;
55148;SDS011;49539;48.160;11.530;2024-02-16T07:06:02;5.30;;;2.15;;
55148;SDS011;49539;48.160;11.530;2024-02-16T07:08:28;5.95;;;2.38;;
55148;SDS011;49539;48.160;11.530;2024-02-16T07:10:53;4.68;;;1.95;;
55148;SDS011;49539;48.160;11.530;2024-02-16T07:13:19;5.47;;;2.60;;
55148;SDS011;49539;48.160;11.530;2024-02-16T07:15:44;12.48;;;2.97;;
55148;SDS011;49539;48.160;11.530;2024-02-16T07:18:11;2.65;;;1.65;;
55148;SDS011;49539;48.160;11.530;2024-02-16T07:20:38;4.82;;;2.28;;
55148;SDS011;49539;48.160;11.530;2024-02-16T07:23:03;6.28;;;1.92;;
55148;SDS011;49539;48.160;11.530;2024-02-16T07:25:28;3.55;;;2.22;;
55148;SDS011;49539;48.160;11.530;2024-02-16T07:27:54;2.50;;;1.67;;
55148;SDS011;49539;48.160;11.530;2024-02-16T07:30:19;4.20;;;1.95;;
55148;SDS011;49539;48.160;11.530;2024-02-16T07:32:48;5.50;;;2.10;;
55148;SDS011;49539;48.160;11.530;2024-02-16T07:35:15;4.10;;;2.20;;
55148;SDS011;49539;48.160;11.530;2024-02-16T07:37:40;2.90;;;1.70;;
55148;SDS011;49539;48.160;11.530;2024-02-16T07:40:06;7.38;;;2.10;;
55148;SDS011;49539;48.160;11.530;2024-02-16T07:42:37;3.90;;;2.38;;
55148;SDS011;49539;48.160;11.530;2024-02-16T07:45:03;5.28;;;2.25;;
55148;SDS011;49539;48.160;11.530;2024-02-16T07:47:31;4.50;;;2.13;;
55148;SDS011;49539;48.160;11.530;2024-02-16T07:49:56;4.88;;;2.42;;
55148;SDS011;49539;48.160;11.530;2024-02-16T07:52:22;5.45;;;2.10;;
55148;SDS011;49539;48.160;11.530;2024-02-16T07:54:47;3.67;;;1.88;;
55148;SDS011;49539;48.160;11.530;2024-02-16T07:57:13;4.72;;;1.98;;
55148;SDS011;49539;48.160;11.530;2024-02-16T07:59:38;3.95;;;1.88;;
55148;SDS011;49539;48.160;11.530;2024-02-16T08:02:05;5.07;;;1.90;;
55148;SDS011;49539;48.160;11.530;2024-02-16T08:04:32;5.57;;;2.47;;
55148;SDS011;49539;48.160;11.530;2024-02-16T08:06:59;4.05;;;2.10;;
55148;SDS011;49539;48.160;11.530;2024-02-16T08:09:26;5.47;;;2.35;;
55148;SDS011;49539;48.160;11.530;2024-02-16T08:11:51;4.82;;;2.25;;
55148;SDS011;49539;48.160;11.530;2024-02-16T08:14:17;8.20;;;1.80;;
55148;SDS011;49539;48.160;11.530;2024-02-16T08:16:42;6.63;;;2.30;;
55148;SDS011;49539;48.160;11.530;2024-02-16T08:19:07;7.35;;;2.55;;
55148;SDS011;49539;48.160;11.530;2024-02-16T08:21:34;3.08;;;1.65;;
55148;SDS011;49539;48.160;11.530;2024-02-16T08:23:59;3.70;;;2.22;;
55148;SDS011;49539;48.160;11.530;2024-02-16T08:26:24;8.43;;;4.72;;
55148;SDS011;49539;48.160;11.530;2024-02-16T08:28:49;5.13;;;2.15;;
55148;SDS011;49539;48.160;11.530;2024-02-16T08:31:15;6.68;;;2.58;;
55148;SDS011;49539;48.160;11.530;2024-02-16T08:33:43;4.63;;;2.58;;
55148;SDS011;49539;48.160;11.530;2024-02-16T08:36:08;3.47;;;1.90;;
55148;SDS011;49539;48.160;11.530;2024-02-16T08:38:33;3.95;;;1.80;;
55148;SDS011;49539;48.160;11.530;2024-02-16T08:40:59;11.07;;;2.38;;
55148;SDS011;49539;48.160;11.530;2024-02-16T08:43:25;6.65;;;2.22;;
55148;SDS011;49539;48.160;11.530;2024-02-16T08:45:50;10.60;;;2.17;;
55148;SDS011;49539;48.160;11.530;2024-02-16T08:48:16;6.25;;;2.03;;
55148;SDS011;49539;48.160;11.530;2024-02-16T08:50:41;3.25;;;2.10;;
55148;SDS011;49539;48.160;11.530;2024-02-16T08:53:06;7.72;;;2.40;;
55148;SDS011;49539;48.160;11.530;2024-02-16T08:55:36;5.47;;;2.05;;
55148;SDS011;49539;48.160;11.530;2024-02-16T08:58:09;5.88;;;2.50;;
55148;SDS011;49539;48.160;11.530;2024-02-16T09:00:35;4.40;;;1.88;;
55148;SDS011;49539;48.160;11.530;2024-02-16T09:03:01;5.00;;;1.65;;
55148;SDS011;49539;48.160;11.530;2024-02-16T09:05:27;3.63;;;1.58;;
55148;SDS011;49539;48.160;11.530;2024-02-16T09:07:53;4.93;;;1.60;;
55148;SDS011;49539;48.160;11.530;2024-02-16T09:10:18;3.85;;;1.75;;
55148;SDS011;49539;48.160;11.530;2024-02-16T09:12:43;4.97;;;1.40;;
55148;SDS011;49539;48.160;11.530;2024-02-16T09:15:09;3.17;;;1.50;;
55148;SDS011;49539;48.160;11.530;2024-02-16T09:17:34;4.63;;;1.52;;
55148;SDS011;49539;48.160;11.530;2024-02-16T09:19:59;6.07;;;1.98;;
55148;SDS011;49539;48.160;11.530;2024-02-16T09:22:25;2.03;;;1.30;;
55148;SDS011;49539;48.160;11.530;2024-02-16T09:24:50;3.15;;;1.42;;
55148;SDS011;49539;48.160;11.530;2024-02-16T09:27:15;2.45;;;1.30;;
55148;SDS011;49539;48.160;11.530;2024-02-16T09:29:41;8.40;;;1.90;;
55148;SDS011;49539;48.160;11.530;2024-02-16T09:32:06;4.28;;;1.70;;
55148;SDS011;49539;48.160;11.530;2024-02-16T09:34:32;8.25;;;1.98;;
55148;SDS011;49539;48.160;11.530;2024-02-16T09:36:58;8.18;;;1.85;;
55148;SDS011;49539;48.160;11.530;2024-02-16T09:39:23;3.20;;;1.52;;
55148;SDS011;49539;48.160;11.530;2024-02-16T09:41:50;4.93;;;1.42;;
55148;SDS011;49539;48.160;11.530;2024-02-16T09:44:16;2.83;;;1.48;;
55148;SDS011;49539;48.160;11.530;2024-02-16T09:46:42;2.75;;;1.27;;
55148;SDS011;49539;48.160;11.530;2024-02-16T09:49:08;4.70;;;1.33;;
55148;SDS011;49539;48.160;11.530;2024-02-16T09:51:36;5.50;;;1.60;;
55148;SDS011;49539;48.160;11.530;2024-02-16T09:54:02;3.42;;;1.40;;
55148;SDS011;49539;48.160;11.530;2024-02-16T09:56:27;3.22;;;1.17;;
55148;SDS011;49539;48.160;11.530;2024-02-16T09:58:53;2.58;;;1.13;;
55148;SDS011;49539;48.160;11.530;2024-02-16T10:01:20;3.50;;;1.15;;
55148;SDS011;49539;48.160;11.530;2024-02-16T10:03:46;3.42;;;1.27;;
55148;SDS011;49539;48.160;11.530;2024-02-16T10:06:11;4.32;;;1.75;;
55148;SDS011;49539;48.160;11.530;2024-02-16T10:08:55;5.70;;;2.20;;
55148;SDS011;49539;48.160;11.530;2024-02-16T10:11:22;10.63;;;2.38;;
55148;SDS011;49539;48.160;11.530;2024-02-16T10:14:02;7.20;;;2.40;;
55148;SDS011;49539;48.160;11.530;2024-02-16T10:16:28;2.38;;;1.48;;
55148;SDS011;49539;48.160;11.530;2024-02-16T10:19:04;10.88;;;2.45;;
55148;SDS011;49539;48.160;11.530;2024-02-16T10:21:30;4.97;;;1.73;;
55148;SDS011;49539;48.160;11.530;2024-02-16T10:23:59;4.18;;;1.92;;
55148;SDS011;49539;48.160;11.530;2024-02-16T10:26:25;3.92;;;1.63;;
55148;SDS011;49539;48.160;11.530;2024-02-16T10:28:51;7.15;;;1.77;;
55148;SDS011;49539;48.160;11.530;2024-02-16T10:31:19;13.00;;;2.05;;
55148;SDS011;49539;48.160;11.530;2024-02-16T10:33:50;4.82;;;1.50;;
55148;SDS011;49539;48.160;11.530;2024-02-16T10:36:15;8.23;;;2.00;;
55148;SDS011;49539;48.160;11.530;2024-02-16T10:38:41;4.53;;;1.50;;
55148;SDS011;49539;48.160;11.530;2024-02-16T10:41:07;4.35;;;1.42;;
55148;SDS011;49539;48.160;11.530;2024-02-16T10:43:33;2.13;;;1.25;;
55148;SDS011;49539;48.160;11.530;2024-02-16T10:46:00;3.45;;;1.40;;
55148;SDS011;49539;48.160;11.530;2024-02-16T10:48:26;4.35;;;1.45;;
55148;SDS011;49539;48.160;11.530;2024-02-16T10:50:51;4.43;;;1.00;;
55148;SDS011;49539;48.160;11.530;2024-02-16T10:55:46;1.70;;;1.00;;
55148;SDS011;49539;48.160;11.530;2024-02-16T10:58:11;4.13;;;1.30;;
55148;SDS011;49539;48.160;11.530;2024-02-16T11:00:47;3.65;;;1.25;;
55148;SDS011;49539;48.160;11.530;2024-02-16T11:03:15;5.78;;;1.15;;
55148;SDS011;49539;48.160;11.530;2024-02-16T11:05:41;2.63;;;1.23;;
55148;SDS011;49539;48.160;11.530;2024-02-16T11:08:15;4.25;;;1.20;;
55148;SDS011;49539;48.160;11.530;2024-02-16T11:10:52;2.40;;;1.23;;
55148;SDS011;49539;48.160;11.530;2024-02-16T11:13:22;3.20;;;1.35;;
55148;SDS011;49539;48.160;11.530;2024-02-16T11:15:47;3.20;;;1.20;;
55148;SDS011;49539;48.160;11.530;2024-02-16T11:18:21;3.83;;;1.40;;
55148;SDS011;49539;48.160;11.530;2024-02-16T11:20:47;3.88;;;1.30;;
55148;SDS011;49539;48.160;11.530;2024-02-16T11:23:14;4.38;;;1.20;;
55148;SDS011;49539;48.160;11.530;2024-02-16T11:25:40;9.30;;;2.50;;
55148;SDS011;49539;48.160;11.530;2024-02-16T11:28:05;3.30;;;1.42;;
55148;SDS011;49539;48.160;11.530;2024-02-16T11:30:34;4.72;;;1.00;;
55148;SDS011;49539;48.160;11.530;2024-02-16T11:33:00;1.40;;;0.85;;
55148;SDS011;49539;48.160;11.530;2024-02-16T11:35:26;11.65;;;1.60;;
55148;SDS011;49539;48.160;11.530;2024-02-16T11:37:51;9.40;;;1.30;;
55148;SDS011;49539;48.160;11.530;2024-02-16T11:40:17;3.55;;;1.08;;
55148;SDS011;49539;48.160;11.530;2024-02-16T11:42:42;3.50;;;1.38;;
55148;SDS011;49539;48.160;11.530;2024-02-16T11:45:10;4.72;;;1.00;;
55148;SDS011;49539;48.160;11.530;2024-02-16T11:47:36;5.82;;;1.25;;
55148;SDS011;49539;48.160;11.530;2024-02-16T11:52:27;3.00;;;1.27;;
55148;SDS011;49539;48.160;11.530;2024-02-16T11:54:52;4.05;;;1.27;;
55148;SDS011;49539;48.160;11.530;2024-02-16T11:57:17;3.25;;;1.52;;
55148;SDS011;49539;48.160;11.530;2024-02-16T11:59:43;2.85;;;1.10;;
55148;SDS011;49539;48.160;11.530;2024-02-16T12:02:16;2.25;;;1.08;;
55148;SDS011;49539;48.160;11.530;2024-02-16T12:04:41;2.17;;;1.00;;
55148;SDS011;49539;48.160;11.530;2024-02-16T12:07:07;1.98;;;1.08;;
55148;SDS011;49539;48.160;11.530;2024-02-16T12:09:34;2.55;;;1.17;;
55148;SDS011;49539;48.160;11.530;2024-02-16T12:12:00;3.83;;;1.08;;
55148;SDS011;49539;48.160;11.530;2024-02-16T12:14:25;3.60;;;1.30;;
55148;SDS011;49539;48.160;11.530;2024-02-16T12:16:51;3.88;;;1.05;;
55148;SDS011;49539;48.160;11.530;2024-02-16T12:19:20;4.00;;;1.33;;
55148;SDS011;49539;48.160;11.530;2024-02-16T12:21:53;3.40;;;1.15;;
55148;SDS011;49539;48.160;11.530;2024-02-16T12:24:19;2.53;;;1.00;;
55148;SDS011;49539;48.160;11.530;2024-02-16T12:26:44;4.20;;;1.20;;
55148;SDS011;49539;48.160;11.530;2024-02-16T12:29:09;1.40;;;0.90;;
55148;SDS011;49539;48.160;11.530;2024-02-16T12:31:38;2.00;;;1.20;;
55148;SDS011;49539;48.160;11.530;2024-02-16T12:34:03;4.40;;;1.83;;
55148;SDS011;49539;48.160;11.530;2024-02-16T12:36:30;2.42;;;1.33;;
55148;SDS011;49539;48.160;11.530;2024-02-16T12:38:58;2.50;;;1.08;;
55148;SDS011;49539;48.160;11.530;2024-02-16T12:41:24;4.20;;;1.65;;
55148;SDS011;49539;48.160;11.530;2024-02-16T12:43:49;4.63;;;1.38;;
55148;SDS011;49539;48.160;11.530;2024-02-16T12:46:15;1.90;;;1.05;;
55148;SDS011;49539;48.160;11.530;2024-02-16T12:48:40;3.22;;;1.40;;
55148;SDS011;49539;48.160;11.530;2024-02-16T12:51:06;7.10;;;1.30;;
55148;SDS011;49539;48.160;11.530;2024-02-16T12:53:31;2.97;;;1.38;;
55148;SDS011;49539;48.160;11.530;2024-02-16T12:56:06;4.88;;;1.45;;
55148;SDS011;49539;48.160;11.530;2024-02-16T12:58:31;6.97;;;1.60;;
55148;SDS011;49539;48.160;11.530;2024-02-16T13:00:57;3.67;;;1.42;;
55148;SDS011;49539;48.160;11.530;2024-02-16T13:03:22;1.58;;;0.95;;
55148;SDS011;49539;48.160;11.530;2024-02-16T13:05:47;7.38;;;1.40;;
55148;SDS011;49539;48.160;11.530;2024-02-16T13:08:13;3.75;;;1.30;;
55148;SDS011;49539;48.160;11.530;2024-02-16T13:10:38;3.05;;;1.42;;
55148;SDS011;49539;48.160;11.530;2024-02-16T13:13:05;2.72;;;1.33;;
55148;SDS011;49539;48.160;11.530;2024-02-16T13:15:33;3.35;;;1.10;;
55148;SDS011;49539;48.160;11.530;2024-02-16T13:17:58;6.90;;;1.42;;
55148;SDS011;49539;48.160;11.530;2024-02-16T13:20:24;4.80;;;1.60;;
55148;SDS011;49539;48.160;11.530;2024-02-16T13:22:49;2.70;;;1.02;;
55148;SDS011;49539;48.160;11.530;2024-02-16T13:25:14;3.58;;;1.50;;
55148;SDS011;49539;48.160;11.530;2024-02-16T13:27:40;3.40;;;1.40;;
55148;SDS011;49539;48.160;11.530;2024-02-16T13:30:07;3.95;;;1.50;;
55148;SDS011;49539;48.160;11.530;2024-02-16T13:32:34;2.88;;;1.50;;
55148;SDS011;49539;48.160;11.530;2024-02-16T13:35:01;4.28;;;1.40;;
55148;SDS011;49539;48.160;11.530;2024-02-16T13:37:28;2.30;;;1.25;;
55148;SDS011;49539;48.160;11.530;2024-02-16T13:39:53;3.17;;;1.25;;
55148;SDS011;49539;48.160;11.530;2024-02-16T13:42:18;2.72;;;1.27;;
55148;SDS011;49539;48.160;11.530;2024-02-16T13:44:44;2.13;;;1.20;;
55148;SDS011;49539;48.160;11.530;2024-02-16T13:47:10;6.30;;;1.17;;
55148;SDS011;49539;48.160;11.530;2024-02-16T13:49:35;5.03;;;1.70;;
55148;SDS011;49539;48.160;11.530;2024-02-16T13:52:01;4.30;;;1.40;;
55148;SDS011;49539;48.160;11.530;2024-02-16T13:54:28;4.22;;;1.83;;
55148;SDS011;49539;48.160;11.530;2024-02-16T13:56:53;4.85;;;1.65;;
55148;SDS011;49539;48.160;11.530;2024-02-16T13:59:19;2.58;;;1.02;;
55148;SDS011;49539;48.160;11.530;2024-02-16T14:01:44;4.40;;;1.40;;
55148;SDS011;49539;48.160;11.530;2024-02-16T14:04:09;3.33;;;1.38;;
55148;SDS011;49539;48.160;11.530;2024-02-16T14:06:35;3.47;;;1.15;;
55148;SDS011;49539;48.160;11.530;2024-02-16T14:09:02;3.92;;;1.65;;
55148;SDS011;49539;48.160;11.530;2024-02-16T14:11:34;5.93;;;1.23;;
55148;SDS011;49539;48.160;11.530;2024-02-16T14:13:59;15.25;;;6.35;;
55148;SDS011;49539;48.160;11.530;2024-02-16T14:16:25;3.90;;;1.58;;
55148;SDS011;49539;48.160;11.530;2024-02-16T14:18:50;3.65;;;1.33;;
55148;SDS011;49539;48.160;11.530;2024-02-16T14:21:17;1.98;;;1.13;;
55148;SDS011;49539;48.160;11.530;2024-02-16T14:23:43;2.92;;;1.35;;
55148;SDS011;49539;48.160;11.530;2024-02-16T14:26:08;2.88;;;1.10;;
55148;SDS011;49539;48.160;11.530;2024-02-16T14:28:36;3.40;;;1.50;;
55148;SDS011;49539;48.160;11.530;2024-02-16T14:31:02;3.22;;;1.40;;
55148;SDS011;49539;48.160;11.530;2024-02-16T14:33:28;2.47;;;1.58;;